sensor_id;sensor_type;location;lat;lon;timestamp;pressure;altitude;pressure_sealevel;temperature;humidity
1029;BME280;503;48.120;11.488;2022-10-04T00:04:58;96119.19;;;11.18;66.06
1029;BME280;503;48.120;11.488;2022-10-04T00:06:59;96118.28;;;11.04;63.23
1029;BME280;503;48.120;11.488;2022-10-04T00:09:31;96122.59;;;11.24;65.10
1029;BME280;503;48.120;11.488;2022-10-04T00:11:58;96113.13;;;11.36;64.58
1029;BME280;503;48.120;11.488;2022-10-04T00:14:25;96114.00;;;11.51;64.28
1029;BME280;503;48.120;11.488;2022-10-04T00:16:52;96108.84;;;11.59;64.51
1029;BME280;503;48.120;11.488;2022-10-04T00:24:30;96101.72;;;11.55;63.74
1029;BME280;503;48.120;11.488;2022-10-04T00:29:40;96088.69;;;11.29;63.65
1029;BME280;503;48.120;11.488;2022-10-04T00:32:22;96087.22;;;11.18;64.09
1029;BME280;503;48.120;11.488;2022-10-04T00:34:49;96091.09;;;11.07;64.45
1029;BME280;503;48.120;11.488;2022-10-04T00:37:16;96109.56;;;10.98;64.48
1029;BME280;503;48.120;11.488;2022-10-04T00:39:43;96098.72;;;10.89;64.13
1029;BME280;503;48.120;11.488;2022-10-04T00:45:35;96096.22;;;10.74;63.63
1029;BME280;503;48.120;11.488;2022-10-04T00:50:14;96083.38;;;10.52;64.99
1029;BME280;503;48.120;11.488;2022-10-04T00:52:43;96080.78;;;10.47;64.63
1029;BME280;503;48.120;11.488;2022-10-04T00:55:09;96041.91;;;10.17;65.21
1029;BME280;503;48.120;11.488;2022-10-04T00:57:43;96085.34;;;10.41;65.02
1029;BME280;503;48.120;11.488;2022-10-04T01:00:11;96084.59;;;10.36;65.04
1029;BME280;503;48.120;11.488;2022-10-04T01:05:08;96085.72;;;10.30;65.16
1029;BME280;503;48.120;11.488;2022-10-04T01:07:38;96088.63;;;10.23;64.88
1029;BME280;503;48.120;11.488;2022-10-04T01:10:17;96083.91;;;10.20;64.96
1029;BME280;503;48.120;11.488;2022-10-04T01:13:01;96069.56;;;10.16;64.69
1029;BME280;503;48.120;11.488;2022-10-04T01:20:36;96072.53;;;10.09;65.22
1029;BME280;503;48.120;11.488;2022-10-04T01:23:02;96072.28;;;10.06;65.54
1029;BME280;503;48.120;11.488;2022-10-04T01:28:08;96064.06;;;10.02;65.16
1029;BME280;503;48.120;11.488;2022-10-04T01:30:33;96065.94;;;10.02;64.78
1029;BME280;503;48.120;11.488;2022-10-04T01:32:58;96064.88;;;10.03;65.71
1029;BME280;503;48.120;11.488;2022-10-04T01:35:24;96064.88;;;10.03;65.28
1029;BME280;503;48.120;11.488;2022-10-04T01:37:50;96063.84;;;9.99;65.57
1029;BME280;503;48.120;11.488;2022-10-04T01:40:16;96060.66;;;9.97;65.15
1029;BME280;503;48.120;11.488;2022-10-04T01:42:43;96062.56;;;9.91;65.07
1029;BME280;503;48.120;11.488;2022-10-04T01:45:14;96059.13;;;9.90;65.26
1029;BME280;503;48.120;11.488;2022-10-04T01:47:46;96044.78;;;9.86;64.70
1029;BME280;503;48.120;11.488;2022-10-04T01:50:18;96054.13;;;9.84;64.68
1029;BME280;503;48.120;11.488;2022-10-04T01:52:46;96050.13;;;9.81;65.69
1029;BME280;503;48.120;11.488;2022-10-04T01:55:14;96052.28;;;9.79;65.14
1029;BME280;503;48.120;11.488;2022-10-04T01:57:42;96039.84;;;9.75;65.07
1029;BME280;503;48.120;11.488;2022-10-04T02:00:10;96030.28;;;9.74;65.42
1029;BME280;503;48.120;11.488;2022-10-04T02:05:12;96022.53;;;9.77;65.37
1029;BME280;503;48.120;11.488;2022-10-04T02:07:40;96028.41;;;9.74;64.73
1029;BME280;503;48.120;11.488;2022-10-04T02:10:08;96027.66;;;9.69;65.01
1029;BME280;503;48.120;11.488;2022-10-04T02:12:34;96024.25;;;9.63;65.22
1029;BME280;503;48.120;11.488;2022-10-04T02:15:03;96020.53;;;9.59;64.89
1029;BME280;503;48.120;11.488;2022-10-04T02:17:32;96027.91;;;9.67;65.26
1029;BME280;503;48.120;11.488;2022-10-04T02:19:59;96023.97;;;9.64;64.70
1029;BME280;503;48.120;11.488;2022-10-04T02:22:25;96025.28;;;9.62;64.94
1029;BME280;503;48.120;11.488;2022-10-04T02:24:51;96022.63;;;9.62;64.92
1029;BME280;503;48.120;11.488;2022-10-04T02:27:17;96006.47;;;9.58;65.00
1029;BME280;503;48.120;11.488;2022-10-04T02:29:42;96011.81;;;9.53;64.77
1029;BME280;503;48.120;11.488;2022-10-04T02:32:07;96012.34;;;9.50;65.22
1029;BME280;503;48.120;11.488;2022-10-04T02:34:51;96019.03;;;9.48;65.11
1029;BME280;503;48.120;11.488;2022-10-04T02:37:18;96027.28;;;9.41;64.94
1029;BME280;503;48.120;11.488;2022-10-04T02:40:02;96029.13;;;9.46;64.80
1029;BME280;503;48.120;11.488;2022-10-04T02:45:17;96027.91;;;9.23;65.45
1029;BME280;503;48.120;11.488;2022-10-04T02:48:04;96029.75;;;9.27;65.59
1029;BME280;503;48.120;11.488;2022-10-04T02:50:34;96021.50;;;9.29;65.19
1029;BME280;503;48.120;11.488;2022-10-04T02:55:44;96018.09;;;9.23;65.36
1029;BME280;503;48.120;11.488;2022-10-04T02:58:12;96016.19;;;9.34;65.01
1029;BME280;503;48.120;11.488;2022-10-04T03:00:49;96017.00;;;9.29;65.27
1029;BME280;503;48.120;11.488;2022-10-04T03:03:16;96019.13;;;9.27;65.10
1029;BME280;503;48.120;11.488;2022-10-04T03:05:44;96009.81;;;9.30;65.00
1029;BME280;503;48.120;11.488;2022-10-04T03:08:11;96016.97;;;9.34;65.37
1029;BME280;503;48.120;11.488;2022-10-04T03:10:37;96010.59;;;9.35;65.40
1029;BME280;503;48.120;11.488;2022-10-04T03:13:03;96019.13;;;9.32;64.75
1029;BME280;503;48.120;11.488;2022-10-04T03:15:28;96025.22;;;9.33;65.17
1029;BME280;503;48.120;11.488;2022-10-04T03:17:54;96019.38;;;9.31;65.06
1029;BME280;503;48.120;11.488;2022-10-04T03:20:19;96012.19;;;9.31;65.05
1029;BME280;503;48.120;11.488;2022-10-04T03:22:48;96012.47;;;9.30;64.47
1029;BME280;503;48.120;11.488;2022-10-04T03:25:16;96017.25;;;9.33;64.73
1029;BME280;503;48.120;11.488;2022-10-04T03:27:42;96001.56;;;9.31;64.40
1029;BME280;503;48.120;11.488;2022-10-04T03:30:14;95999.19;;;9.30;64.45
1029;BME280;503;48.120;11.488;2022-10-04T03:32:40;96006.91;;;9.26;64.97
1029;BME280;503;48.120;11.488;2022-10-04T03:35:18;96002.41;;;9.27;64.88
1029;BME280;503;48.120;11.488;2022-10-04T03:37:46;96007.72;;;9.27;64.56
1029;BME280;503;48.120;11.488;2022-10-04T03:40:12;96008.53;;;9.27;64.63
1029;BME280;503;48.120;11.488;2022-10-04T03:42:38;96010.38;;;9.27;64.80
1029;BME280;503;48.120;11.488;2022-10-04T03:45:10;96011.19;;;9.22;65.06
1029;BME280;503;48.120;11.488;2022-10-04T03:47:37;96002.94;;;9.29;64.56
1029;BME280;503;48.120;11.488;2022-10-04T03:50:11;96007.97;;;9.25;64.58
1029;BME280;503;48.120;11.488;2022-10-04T03:52:45;96008.31;;;9.14;64.53
1029;BME280;503;48.120;11.488;2022-10-04T03:55:12;96013.38;;;9.10;64.61
1029;BME280;503;48.120;11.488;2022-10-04T03:57:39;96020.81;;;9.08;65.08
1029;BME280;503;48.120;11.488;2022-10-04T04:00:05;96017.66;;;9.06;65.20
1029;BME280;503;48.120;11.488;2022-10-04T04:02:32;96020.84;;;9.03;64.72
1029;BME280;503;48.120;11.488;2022-10-04T04:07:38;96021.34;;;9.05;64.57
1029;BME280;503;48.120;11.488;2022-10-04T04:10:16;96019.78;;;9.04;64.85
1029;BME280;503;48.120;11.488;2022-10-04T04:12:48;96012.59;;;9.04;64.61
1029;BME280;503;48.120;11.488;2022-10-04T04:15:16;96012.88;;;9.03;64.47
1029;BME280;503;48.120;11.488;2022-10-04T04:17:42;96008.91;;;9.00;64.36
1029;BME280;503;48.120;11.488;2022-10-04T04:20:16;96006.81;;;8.97;65.11
1029;BME280;503;48.120;11.488;2022-10-04T04:22:42;96006.03;;;8.92;64.83
1029;BME280;503;48.120;11.488;2022-10-04T04:25:11;96001.81;;;8.91;65.21
1029;BME280;503;48.120;11.488;2022-10-04T04:27:38;96001.81;;;8.91;65.17
1029;BME280;503;48.120;11.488;2022-10-04T04:30:06;96007.63;;;8.93;64.94
1029;BME280;503;48.120;11.488;2022-10-04T04:32:32;96012.94;;;8.93;64.72
1029;BME280;503;48.120;11.488;2022-10-04T04:35:02;96008.41;;;8.93;65.03
1029;BME280;503;48.120;11.488;2022-10-04T04:37:34;96013.72;;;8.93;65.07
1029;BME280;503;48.120;11.488;2022-10-04T04:40:10;96013.72;;;8.93;64.53
1029;BME280;503;48.120;11.488;2022-10-04T04:42:35;96021.94;;;8.92;64.53
1029;BME280;503;48.120;11.488;2022-10-04T04:45:05;96015.31;;;8.89;64.57
1029;BME280;503;48.120;11.488;2022-10-04T04:47:38;96010.78;;;8.95;64.94
1029;BME280;503;48.120;11.488;2022-10-04T04:50:07;96004.94;;;8.98;64.16
1029;BME280;503;48.120;11.488;2022-10-04T04:52:35;96006.25;;;9.00;64.04
1029;BME280;503;48.120;11.488;2022-10-04T04:55:01;96007.59;;;8.98;64.31
1029;BME280;503;48.120;11.488;2022-10-04T04:57:27;96008.94;;;8.90;65.27
1029;BME280;503;48.120;11.488;2022-10-04T04:59:53;96004.69;;;8.89;65.06
1029;BME280;503;48.120;11.488;2022-10-04T05:02:30;96007.84;;;9.01;64.73
1029;BME280;503;48.120;11.488;2022-10-04T05:05:09;96009.16;;;9.04;65.06
1029;BME280;503;48.120;11.488;2022-10-04T05:07:34;96015.78;;;9.06;64.87
1029;BME280;503;48.120;11.488;2022-10-04T05:09:59;96007.03;;;9.11;64.52
1029;BME280;503;48.120;11.488;2022-10-04T05:12:25;96002.22;;;9.13;64.14
1029;BME280;503;48.120;11.488;2022-10-04T05:14:51;96005.38;;;9.15;63.78
1029;BME280;503;48.120;11.488;2022-10-04T05:17:17;96012.28;;;9.16;63.90
1029;BME280;503;48.120;11.488;2022-10-04T05:19:44;96021.03;;;9.22;63.88
1029;BME280;503;48.120;11.488;2022-10-04T05:22:10;96014.09;;;9.21;63.94
1029;BME280;503;48.120;11.488;2022-10-04T05:24:37;96012.50;;;9.25;63.71
1029;BME280;503;48.120;11.488;2022-10-04T05:27:04;96014.09;;;9.26;63.53
1029;BME280;503;48.120;11.488;2022-10-04T05:29:35;96018.13;;;9.18;63.71
1029;BME280;503;48.120;11.488;2022-10-04T05:34:46;96016.66;;;9.41;64.17
1029;BME280;503;48.120;11.488;2022-10-04T05:37:33;96015.00;;;9.50;64.24
1029;BME280;503;48.120;11.488;2022-10-04T05:42:39;96008.16;;;9.83;64.20
1029;BME280;503;48.120;11.488;2022-10-04T05:45:16;95999.75;;;10.05;64.23
1029;BME280;503;48.120;11.488;2022-10-04T05:47:42;95996.88;;;10.31;63.32
1029;BME280;503;48.120;11.488;2022-10-04T05:50:15;95994.53;;;10.53;63.06
1029;BME280;503;48.120;11.488;2022-10-04T05:52:41;95993.16;;;10.80;62.93
1029;BME280;503;48.120;11.488;2022-10-04T06:00:30;95998.31;;;11.38;61.51
1029;BME280;503;48.120;11.488;2022-10-04T06:03:15;95995.06;;;11.60;61.56
1029;BME280;503;48.120;11.488;2022-10-04T06:05:54;96000.03;;;11.85;60.72
1029;BME280;503;48.120;11.488;2022-10-04T06:16:30;96021.66;;;12.63;59.39
1029;BME280;503;48.120;11.488;2022-10-04T06:21:27;95995.75;;;12.63;58.79
1029;BME280;503;48.120;11.488;2022-10-04T06:23:58;95999.22;;;12.64;58.35
1029;BME280;503;48.120;11.488;2022-10-04T06:26:27;96020.66;;;12.59;58.30
1029;BME280;503;48.120;11.488;2022-10-04T06:28:56;96010.69;;;12.51;58.83
1029;BME280;503;48.120;11.488;2022-10-04T06:31:39;96015.50;;;12.48;58.90
1029;BME280;503;48.120;11.488;2022-10-04T06:39:20;96018.91;;;12.54;59.46
1029;BME280;503;48.120;11.488;2022-10-04T06:41:59;96011.78;;;12.63;59.71
1029;BME280;503;48.120;11.488;2022-10-04T06:44:34;96011.88;;;12.72;59.62
1029;BME280;503;48.120;11.488;2022-10-04T06:49:48;96008.72;;;13.11;59.41
1029;BME280;503;48.120;11.488;2022-10-04T06:57:50;96001.19;;;13.77;57.92
1029;BME280;503;48.120;11.488;2022-10-04T07:00:25;96011.06;;;14.13;57.70
1029;BME280;503;48.120;11.488;2022-10-04T07:05:17;96003.03;;;14.66;56.33
1029;BME280;503;48.120;11.488;2022-10-04T07:07:47;96000.56;;;14.87;55.37
1029;BME280;503;48.120;11.488;2022-10-04T07:13:03;95993.75;;;15.29;54.83
1029;BME280;503;48.120;11.488;2022-10-04T07:15:41;95997.09;;;15.52;54.92
1029;BME280;503;48.120;11.488;2022-10-04T07:18:11;96002.84;;;15.77;54.35
1029;BME280;503;48.120;11.488;2022-10-04T07:20:37;95999.50;;;15.89;53.17
1029;BME280;503;48.120;11.488;2022-10-04T07:23:13;96009.75;;;16.04;53.51
1029;BME280;503;48.120;11.488;2022-10-04T07:25:45;96006.91;;;16.18;53.02
1029;BME280;503;48.120;11.488;2022-10-04T07:28:16;96019.84;;;16.33;52.59
1029;BME280;503;48.120;11.488;2022-10-04T07:31:10;96020.41;;;16.47;52.09
1029;BME280;503;48.120;11.488;2022-10-04T07:33:43;96020.41;;;16.56;51.96
1029;BME280;503;48.120;11.488;2022-10-04T07:36:12;96018.97;;;16.76;52.45
1029;BME280;503;48.120;11.488;2022-10-04T07:38:51;96025.53;;;16.96;52.28
1029;BME280;503;48.120;11.488;2022-10-04T07:41:23;96015.47;;;17.13;51.42
1029;BME280;503;48.120;11.488;2022-10-04T07:43:52;96022.34;;;17.32;51.04
1029;BME280;503;48.120;11.488;2022-10-04T07:49:09;96021.78;;;17.68;50.47
1029;BME280;503;48.120;11.488;2022-10-04T07:51:39;96022.06;;;17.75;50.36
1029;BME280;503;48.120;11.488;2022-10-04T07:54:13;96023.00;;;17.79;50.91
1029;BME280;503;48.120;11.488;2022-10-04T07:56:44;96032.84;;;17.75;50.57
1029;BME280;503;48.120;11.488;2022-10-04T07:59:33;96035.88;;;17.65;49.91
1029;BME280;503;48.120;11.488;2022-10-04T08:04:55;96045.19;;;17.76;50.64
1029;BME280;503;48.120;11.488;2022-10-04T08:07:25;96042.88;;;17.66;50.35
1029;BME280;503;48.120;11.488;2022-10-04T08:10:12;96038.28;;;17.66;50.76
1029;BME280;503;48.120;11.488;2022-10-04T08:15:28;96038.38;;;17.70;49.78
1029;BME280;503;48.120;11.488;2022-10-04T08:18:03;96041.34;;;17.56;49.75
1029;BME280;503;48.120;11.488;2022-10-04T08:23:24;96036.69;;;18.28;49.29
1029;BME280;503;48.120;11.488;2022-10-04T08:36:38;96046.06;;;18.76;46.92
1029;BME280;503;48.120;11.488;2022-10-04T08:39:14;96037.25;;;18.67;46.22
1029;BME280;503;48.120;11.488;2022-10-04T08:45:06;96037.22;;;18.55;46.35
1029;BME280;503;48.120;11.488;2022-10-04T08:57:18;96025.75;;;19.77;45.33
1029;BME280;503;48.120;11.488;2022-10-04T09:07:42;96016.91;;;20.32;43.83
1029;BME280;503;48.120;11.488;2022-10-04T09:17:52;96017.94;;;20.71;43.02
1029;BME280;503;48.120;11.488;2022-10-04T09:28:11;96030.19;;;20.97;42.03
1029;BME280;503;48.120;11.488;2022-10-04T09:38:37;96012.34;;;21.27;40.74
1029;BME280;503;48.120;11.488;2022-10-04T09:56:29;96022.75;;;22.12;40.62
1029;BME280;503;48.120;11.488;2022-10-04T10:01:44;96025.16;;;22.36;39.98
1029;BME280;503;48.120;11.488;2022-10-04T10:06:50;96018.03;;;22.28;39.89
1029;BME280;503;48.120;11.488;2022-10-04T10:09:23;96015.44;;;22.54;39.61
1029;BME280;503;48.120;11.488;2022-10-04T10:12:25;96012.56;;;22.67;39.07
1029;BME280;503;48.120;11.488;2022-10-04T10:15:53;96013.25;;;21.16;42.03
1029;BME280;503;48.120;11.488;2022-10-04T10:18:13;96020.09;;;21.96;40.73
1029;BME280;503;48.120;11.488;2022-10-04T10:20:47;96016.63;;;22.34;40.34
1029;BME280;503;48.120;11.488;2022-10-04T10:29:29;96020.06;;;22.73;39.29
1029;BME280;503;48.120;11.488;2022-10-04T10:39:44;96034.72;;;22.92;39.24
1029;BME280;503;48.120;11.488;2022-10-04T10:42:27;96041.03;;;21.99;39.27
1029;BME280;503;48.120;11.488;2022-10-04T10:45:09;96033.09;;;22.25;39.60
1029;BME280;503;48.120;11.488;2022-10-04T10:47:52;96035.56;;;21.44;40.57
1029;BME280;503;48.120;11.488;2022-10-04T10:50:32;96034.91;;;20.84;41.99
1029;BME280;503;48.120;11.488;2022-10-04T10:56:01;96039.69;;;21.22;41.16
1029;BME280;503;48.120;11.488;2022-10-04T11:07:02;96033.84;;;20.89;41.31
1029;BME280;503;48.120;11.488;2022-10-04T11:15:08;96025.16;;;21.62;40.05
1029;BME280;503;48.120;11.488;2022-10-04T11:23:31;96016.28;;;22.16;38.58
1029;BME280;503;48.120;11.488;2022-10-04T11:28:41;96024.81;;;22.18;38.57
1029;BME280;503;48.120;11.488;2022-10-04T11:31:17;96024.13;;;22.05;39.31
1029;BME280;503;48.120;11.488;2022-10-04T11:33:55;96013.63;;;22.20;39.13
1029;BME280;503;48.120;11.488;2022-10-04T11:39:22;96013.31;;;22.44;38.05
1029;BME280;503;48.120;11.488;2022-10-04T11:41:55;96009.03;;;22.63;38.06
1029;BME280;503;48.120;11.488;2022-10-04T11:44:49;96006.50;;;22.96;37.51
1029;BME280;503;48.120;11.488;2022-10-04T11:47:19;96007.31;;;22.77;36.65
1029;BME280;503;48.120;11.488;2022-10-04T11:49:59;96007.56;;;22.69;36.79
1029;BME280;503;48.120;11.488;2022-10-04T12:00:21;95991.84;;;23.50;35.44
1029;BME280;503;48.120;11.488;2022-10-04T12:13:46;95993.88;;;22.62;37.15
1029;BME280;503;48.120;11.488;2022-10-04T12:31:56;95972.28;;;22.46;36.91
1029;BME280;503;48.120;11.488;2022-10-04T12:34:26;95972.44;;;22.53;37.33
1029;BME280;503;48.120;11.488;2022-10-04T12:42:08;95970.00;;;22.71;35.24
1029;BME280;503;48.120;11.488;2022-10-04T12:54:59;95967.97;;;21.83;36.47
1029;BME280;503;48.120;11.488;2022-10-04T13:00:19;95962.06;;;21.97;36.83
1029;BME280;503;48.120;11.488;2022-10-04T13:15:42;95947.16;;;21.33;38.90
1029;BME280;503;48.120;11.488;2022-10-04T13:25:47;95943.28;;;21.14;39.19
1029;BME280;503;48.120;11.488;2022-10-04T13:28:28;95945.84;;;21.26;38.44
1029;BME280;503;48.120;11.488;2022-10-04T13:30:59;95940.13;;;21.12;39.18
1029;BME280;503;48.120;11.488;2022-10-04T13:35:58;95943.41;;;21.21;38.85
1029;BME280;503;48.120;11.488;2022-10-04T13:53:56;95949.28;;;21.08;40.74
1029;BME280;503;48.120;11.488;2022-10-04T13:59:26;95946.78;;;20.99;41.35
1029;BME280;503;48.120;11.488;2022-10-04T14:12:55;95960.34;;;21.18;41.00
1029;BME280;503;48.120;11.488;2022-10-04T14:21:02;95966.09;;;20.38;42.24
1029;BME280;503;48.120;11.488;2022-10-04T14:31:46;95956.34;;;21.12;40.53
1029;BME280;503;48.120;11.488;2022-10-04T14:34:26;95958.97;;;21.24;40.15
1029;BME280;503;48.120;11.488;2022-10-04T14:45:01;95953.72;;;21.32;39.51
1029;BME280;503;48.120;11.488;2022-10-04T15:03:18;95960.44;;;21.38;42.10
1029;BME280;503;48.120;11.488;2022-10-04T15:08:23;95960.94;;;21.43;41.00
1029;BME280;503;48.120;11.488;2022-10-04T15:11:02;95964.00;;;21.42;41.21
1029;BME280;503;48.120;11.488;2022-10-04T15:13:40;95960.88;;;21.40;40.84
1029;BME280;503;48.120;11.488;2022-10-04T15:36:29;95969.53;;;20.82;41.40
1029;BME280;503;48.120;11.488;2022-10-04T15:39:29;95962.47;;;20.62;42.03
1029;BME280;503;48.120;11.488;2022-10-04T15:41:49;95965.28;;;20.65;41.97
1029;BME280;503;48.120;11.488;2022-10-04T15:44:40;95968.13;;;20.57;41.49
1029;BME280;503;48.120;11.488;2022-10-04T15:47:20;95961.78;;;20.49;42.25
1029;BME280;503;48.120;11.488;2022-10-04T15:55:34;95965.34;;;20.09;43.17
1029;BME280;503;48.120;11.488;2022-10-04T16:21:42;95950.41;;;18.94;46.15
1029;BME280;503;48.120;11.488;2022-10-04T16:31:44;95956.16;;;18.48;48.08
1029;BME280;503;48.120;11.488;2022-10-04T16:37:01;95962.63;;;18.22;48.80
1029;BME280;503;48.120;11.488;2022-10-04T16:39:37;95956.31;;;18.18;48.66
1029;BME280;503;48.120;11.488;2022-10-04T16:42:32;95949.91;;;18.10;49.09
1029;BME280;503;48.120;11.488;2022-10-04T16:47:30;95956.44;;;17.88;49.78
1029;BME280;503;48.120;11.488;2022-10-04T16:50:00;95956.41;;;17.76;50.24
1029;BME280;503;48.120;11.488;2022-10-04T16:55:09;95963.97;;;17.53;51.67
1029;BME280;503;48.120;11.488;2022-10-04T16:57:44;95956.31;;;17.43;52.27
1029;BME280;503;48.120;11.488;2022-10-04T17:00:33;95959.00;;;17.43;51.87
1029;BME280;503;48.120;11.488;2022-10-04T17:03:06;95958.59;;;17.32;52.20
1029;BME280;503;48.120;11.488;2022-10-04T17:05:40;95949.78;;;17.23;52.39
1029;BME280;503;48.120;11.488;2022-10-04T17:10:57;95946.91;;;16.99;53.44
1029;BME280;503;48.120;11.488;2022-10-04T17:18:25;95951.59;;;16.81;54.13
1029;BME280;503;48.120;11.488;2022-10-04T17:20:54;95946.56;;;16.71;54.96
1029;BME280;503;48.120;11.488;2022-10-04T17:23:35;95951.94;;;16.71;54.59
1029;BME280;503;48.120;11.488;2022-10-04T17:31:14;95962.81;;;16.36;55.91
1029;BME280;503;48.120;11.488;2022-10-04T17:36:12;95961.13;;;16.23;56.87
1029;BME280;503;48.120;11.488;2022-10-04T17:41:50;95961.28;;;16.18;56.80
1029;BME280;503;48.120;11.488;2022-10-04T17:46:49;95952.97;;;15.93;58.15
1029;BME280;503;48.120;11.488;2022-10-04T17:52:18;95962.13;;;15.92;57.86
1029;BME280;503;48.120;11.488;2022-10-04T17:55:15;95955.19;;;15.82;58.00
1029;BME280;503;48.120;11.488;2022-10-04T18:05:27;95983.06;;;15.55;59.18
1029;BME280;503;48.120;11.488;2022-10-04T18:10:57;95985.25;;;15.36;60.50
1029;BME280;503;48.120;11.488;2022-10-04T18:13:29;95913.63;;;14.85;60.47
1029;BME280;503;48.120;11.488;2022-10-04T18:16:01;95980.34;;;15.29;61.00
1029;BME280;503;48.120;11.488;2022-10-04T18:18:40;95982.09;;;15.25;60.95
1029;BME280;503;48.120;11.488;2022-10-04T18:21:26;95979.72;;;15.24;61.69
1029;BME280;503;48.120;11.488;2022-10-04T18:26:20;95986.97;;;15.23;61.74
1029;BME280;503;48.120;11.488;2022-10-04T18:28:46;95983.03;;;15.21;61.20
1029;BME280;503;48.120;11.488;2022-10-04T18:33:48;95986.16;;;15.14;62.08
1029;BME280;503;48.120;11.488;2022-10-04T18:36:18;95984.91;;;15.12;62.18
1029;BME280;503;48.120;11.488;2022-10-04T18:38:57;95979.84;;;15.10;62.09
1029;BME280;503;48.120;11.488;2022-10-04T18:41:24;95982.84;;;15.08;62.28
1029;BME280;503;48.120;11.488;2022-10-04T18:44:12;95977.00;;;15.06;62.32
1029;BME280;503;48.120;11.488;2022-10-04T18:46:39;95978.13;;;15.05;62.05
1029;BME280;503;48.120;11.488;2022-10-04T19:04:48;95998.19;;;14.77;64.09
1029;BME280;503;48.120;11.488;2022-10-04T19:09:50;96000.84;;;14.77;63.53
1029;BME280;503;48.120;11.488;2022-10-04T19:12:22;96005.25;;;14.73;63.74
1029;BME280;503;48.120;11.488;2022-10-04T19:17:28;96003.94;;;14.62;63.91
1029;BME280;503;48.120;11.488;2022-10-04T19:20:02;96004.84;;;14.57;63.96
1029;BME280;503;48.120;11.488;2022-10-04T19:27:26;95998.78;;;14.43;64.44
1029;BME280;503;48.120;11.488;2022-10-04T19:32:28;96008.03;;;14.37;64.32
1029;BME280;503;48.120;11.488;2022-10-04T19:35:40;96011.34;;;14.34;64.23
1029;BME280;503;48.120;11.488;2022-10-04T19:37:58;96018.72;;;14.28;64.77
1029;BME280;503;48.120;11.488;2022-10-04T19:40:49;96023.38;;;14.22;64.99
1029;BME280;503;48.120;11.488;2022-10-04T19:43:17;96023.50;;;14.17;64.86
1029;BME280;503;48.120;11.488;2022-10-04T19:48:31;96011.53;;;14.15;65.33
1029;BME280;503;48.120;11.488;2022-10-04T19:51:15;96005.50;;;14.09;64.99
1029;BME280;503;48.120;11.488;2022-10-04T19:53:43;96011.19;;;14.08;65.02
1029;BME280;503;48.120;11.488;2022-10-04T19:56:19;96009.69;;;13.79;66.87
1029;BME280;503;48.120;11.488;2022-10-04T19:58:46;96018.63;;;13.97;66.13
1029;BME280;503;48.120;11.488;2022-10-04T20:01:17;96018.34;;;13.98;65.76
1029;BME280;503;48.120;11.488;2022-10-04T20:03:44;96023.19;;;13.96;65.54
1029;BME280;503;48.120;11.488;2022-10-04T20:06:18;96029.44;;;13.92;65.77
1029;BME280;503;48.120;11.488;2022-10-04T20:08:47;96023.63;;;13.90;65.52
1029;BME280;503;48.120;11.488;2022-10-04T20:11:17;96015.41;;;13.86;65.65
1029;BME280;503;48.120;11.488;2022-10-04T20:13:43;96017.91;;;13.83;65.85
1029;BME280;503;48.120;11.488;2022-10-04T20:16:09;96017.84;;;13.74;66.06
1029;BME280;503;48.120;11.488;2022-10-04T20:21:04;96007.13;;;13.74;65.86
1029;BME280;503;48.120;11.488;2022-10-04T20:26:04;96015.50;;;13.59;67.02
1029;BME280;503;48.120;11.488;2022-10-04T20:31:51;96014.41;;;13.60;66.55
1029;BME280;503;48.120;11.488;2022-10-04T20:33:51;96017.59;;;13.62;66.13
1029;BME280;503;48.120;11.488;2022-10-04T20:50:03;96014.63;;;13.49;65.94
1029;BME280;503;48.120;11.488;2022-10-04T20:52:31;96017.09;;;13.46;65.90
1029;BME280;503;48.120;11.488;2022-10-04T20:54:58;96026.22;;;13.45;65.70
1029;BME280;503;48.120;11.488;2022-10-04T20:57:25;96025.72;;;13.43;65.94
1029;BME280;503;48.120;11.488;2022-10-04T20:59:50;96030.09;;;13.39;65.89
1029;BME280;503;48.120;11.488;2022-10-04T21:02:18;96034.16;;;13.36;65.72
1029;BME280;503;48.120;11.488;2022-10-04T21:04:44;96032.06;;;13.33;65.73
1029;BME280;503;48.120;11.488;2022-10-04T21:07:21;96031.88;;;13.30;65.55
1029;BME280;503;48.120;11.488;2022-10-04T21:09:47;96038.63;;;13.27;65.81
1029;BME280;503;48.120;11.488;2022-10-04T21:12:26;96035.94;;;13.27;66.29
1029;BME280;503;48.120;11.488;2022-10-04T21:19:54;96040.06;;;13.19;65.94
1029;BME280;503;48.120;11.488;2022-10-04T21:24:53;96051.66;;;13.15;66.06
1029;BME280;503;48.120;11.488;2022-10-04T21:27:26;96046.31;;;13.15;66.20
1029;BME280;503;48.120;11.488;2022-10-04T21:29:52;96041.84;;;13.10;66.00
1029;BME280;503;48.120;11.488;2022-10-04T21:32:18;96050.16;;;13.09;66.58
1029;BME280;503;48.120;11.488;2022-10-04T21:34:43;96049.69;;;13.07;66.46
1029;BME280;503;48.120;11.488;2022-10-04T21:37:08;96048.09;;;13.06;66.38
1029;BME280;503;48.120;11.488;2022-10-04T21:39:33;96051.34;;;13.02;66.33
1029;BME280;503;48.120;11.488;2022-10-04T21:41:58;96044.75;;;13.00;66.23
1029;BME280;503;48.120;11.488;2022-10-04T21:44:23;96050.88;;;13.00;66.56
1029;BME280;503;48.120;11.488;2022-10-04T21:46:49;96053.53;;;13.00;66.21
1029;BME280;503;48.120;11.488;2022-10-04T21:49:14;96056.78;;;12.97;66.28
1029;BME280;503;48.120;11.488;2022-10-04T21:51:39;96057.88;;;12.96;66.04
1029;BME280;503;48.120;11.488;2022-10-04T21:54:05;96058.97;;;12.95;66.04
1029;BME280;503;48.120;11.488;2022-10-04T21:56:30;96062.22;;;12.92;66.25
1029;BME280;503;48.120;11.488;2022-10-04T21:58:55;96057.97;;;12.91;66.22
1029;BME280;503;48.120;11.488;2022-10-04T22:01:21;96061.75;;;12.90;66.27
1029;BME280;503;48.120;11.488;2022-10-04T22:03:46;96066.31;;;12.90;66.20
1029;BME280;503;48.120;11.488;2022-10-04T22:06:11;96062.03;;;12.89;66.40
1029;BME280;503;48.120;11.488;2022-10-04T22:08:36;96052.44;;;12.88;66.39
1029;BME280;503;48.120;11.488;2022-10-04T22:11:02;96058.09;;;12.86;66.30
1029;BME280;503;48.120;11.488;2022-10-04T22:13:27;96053.53;;;12.87;66.56
1029;BME280;503;48.120;11.488;2022-10-04T22:15:52;96054.09;;;12.84;66.46
1029;BME280;503;48.120;11.488;2022-10-04T22:18:17;96051.75;;;12.82;66.43
1029;BME280;503;48.120;11.488;2022-10-04T22:20:43;96041.06;;;12.82;66.33
1029;BME280;503;48.120;11.488;2022-10-04T22:23:19;96043.25;;;12.80;66.53